createdAt,value
2022-11-07T00:00:28.093Z,99511.06
2022-11-07T00:02:57.151Z,99506.41
2022-11-07T00:05:27.355Z,99519.47
2022-11-07T00:07:56.070Z,99508.41
2022-11-07T00:10:24.446Z,99513.84
2022-11-07T00:12:53.118Z,99512.06
2022-11-07T00:15:21.613Z,99503.22
2022-11-07T00:17:49.903Z,99496.75
2022-11-07T00:20:19.409Z,99504.00
2022-11-07T00:22:49.715Z,99506.81
2022-11-07T00:25:19.325Z,99507.22
2022-11-07T00:27:49.246Z,99515.47
2022-11-07T00:30:18.198Z,99513.47
2022-11-07T00:32:47.148Z,99512.69
2022-11-07T00:35:15.736Z,99498.78
2022-11-07T00:37:44.256Z,99503.81
2022-11-07T00:40:16.158Z,99509.66
2022-11-07T00:42:45.266Z,99504.03
2022-11-07T00:45:13.794Z,99501.81
2022-11-07T00:47:42.066Z,99494.94
2022-11-07T00:50:10.777Z,99503.22
2022-11-07T00:52:39.029Z,99489.31
2022-11-07T00:55:07.785Z,99481.88
2022-11-07T00:57:37.714Z,99478.25
2022-11-07T01:00:06.537Z,99477.25
2022-11-07T01:02:35.007Z,99483.47
2022-11-07T01:05:11.164Z,99467.78
2022-11-07T01:07:40.036Z,99462.97
2022-11-07T01:10:09.144Z,99475.03
2022-11-07T01:12:39.802Z,99461.75
2022-11-07T01:15:08.972Z,99458.31
2022-11-07T01:17:38.230Z,99465.38
2022-11-07T01:20:08.845Z,99470.22
2022-11-07T01:22:38.884Z,99461.94
2022-11-07T01:25:16.004Z,99464.97
2022-11-07T01:27:47.074Z,99452.91
2022-11-07T01:30:16.394Z,99450.66
2022-11-07T01:32:45.288Z,99443.44
2022-11-07T01:35:18.649Z,99439.41
2022-11-07T01:37:48.552Z,99434.97
2022-11-07T01:53:30.311Z,99438.38
2022-11-07T01:55:59.155Z,99440.41
2022-11-07T02:01:10.037Z,99430.34
2022-11-07T02:03:39.827Z,99424.28
2022-11-07T02:06:12.090Z,99424.91
2022-11-07T02:08:44.804Z,99427.72
2022-11-07T02:11:17.643Z,99425.31
2022-11-07T02:13:47.074Z,99432.75
2022-11-07T02:16:15.870Z,99434.34
2022-11-07T02:18:44.761Z,99425.09
2022-11-07T02:21:18.370Z,99421.25
2022-11-07T02:23:51.881Z,99422.69
2022-11-07T02:26:23.797Z,99426.09
2022-11-07T02:28:54.379Z,99420.25
2022-11-07T02:31:23.154Z,99424.69
2022-11-07T02:33:52.039Z,99422.69
2022-11-07T02:36:25.698Z,99419.84
2022-11-07T02:39:00.141Z,99431.13
2022-11-07T02:41:34.888Z,99423.44
2022-11-07T02:44:05.834Z,99410.16
2022-11-07T02:46:34.961Z,99413.34
2022-11-07T02:49:03.517Z,99418.19
2022-11-07T02:51:32.015Z,99416.81
2022-11-07T02:54:01.278Z,99413.16
2022-11-07T02:56:33.122Z,99423.84
2022-11-07T02:59:01.973Z,99417.78
2022-11-07T03:01:32.308Z,99414.97
2022-11-07T03:04:00.923Z,99410.13
2022-11-07T03:06:30.738Z,99408.50
2022-11-07T03:09:00.116Z,99415.53
2022-11-07T03:11:29.157Z,99412.91
2022-11-07T03:13:58.878Z,99407.66
2022-11-07T03:16:27.761Z,99405.47
2022-11-07T03:18:56.342Z,99398.00
2022-11-07T03:21:24.417Z,99404.06
2022-11-07T03:23:52.990Z,99400.44
2022-11-07T03:26:21.905Z,99393.19
2022-11-07T03:28:50.674Z,99392.81
2022-11-07T03:31:21.548Z,99384.72
2022-11-07T03:33:50.279Z,99390.34
2022-11-07T03:36:18.713Z,99383.50
2022-11-07T03:38:47.196Z,99391.97
2022-11-07T03:41:17.601Z,99384.31
2022-11-07T03:43:46.120Z,99396.78
2022-11-07T03:46:14.689Z,99401.38
2022-11-07T03:48:45.210Z,99397.00
2022-11-07T03:51:14.637Z,99400.84
2022-11-07T03:53:43.330Z,99394.56
2022-11-07T03:56:12.561Z,99400.41
2022-11-07T03:58:41.070Z,99407.25
2022-11-07T04:01:10.647Z,99405.81
2022-11-07T04:03:42.043Z,99404.00
2022-11-07T04:06:13.528Z,99403.38
2022-11-07T04:08:42.396Z,99403.97
2022-11-07T04:11:31.342Z,99406.19
2022-11-07T04:14:13.379Z,99403.78
2022-11-07T04:16:59.284Z,99403.34
2022-11-07T04:19:27.819Z,99414.84
2022-11-07T04:21:58.031Z,99408.63
2022-11-07T04:24:26.718Z,99405.78
2022-11-07T04:27:11.559Z,99403.78
2022-11-07T04:29:40.588Z,99398.97
2022-11-07T04:32:09.013Z,99393.97
2022-11-07T04:34:37.692Z,99411.09
2022-11-07T04:37:07.386Z,99411.09
2022-11-07T04:39:36.292Z,99413.91
2022-11-07T04:42:05.340Z,99408.88
2022-11-07T04:44:34.687Z,99406.88
2022-11-07T04:47:03.754Z,99397.81
2022-11-07T04:49:32.373Z,99394.78
2022-11-07T05:01:03.601Z,99401.81
2022-11-07T05:03:35.195Z,99400.03
2022-11-07T05:06:08.525Z,99396.78
2022-11-07T05:08:39.979Z,99397.00
2022-11-07T05:11:08.498Z,99394.78
2022-11-07T05:13:37.429Z,99390.34
2022-11-07T05:16:07.828Z,99391.53
2022-11-07T05:18:36.787Z,99390.31
2022-11-07T05:21:05.466Z,99394.34
2022-11-07T05:23:32.696Z,99392.72
2022-11-07T05:26:01.849Z,99382.22
2022-11-07T05:28:38.731Z,99390.28
2022-11-07T05:31:10.504Z,99392.31
2022-11-07T05:33:39.591Z,99394.25
2022-11-07T05:36:11.654Z,99401.31
2022-11-07T05:38:42.299Z,99393.91
2022-11-07T05:41:12.006Z,99397.69
2022-11-07T05:43:41.224Z,99402.75
2022-11-07T05:46:11.576Z,99401.34
2022-11-07T05:48:40.349Z,99400.94
2022-11-07T05:51:09.556Z,99399.53
2022-11-07T05:53:38.527Z,99396.88
2022-11-07T05:56:07.069Z,99400.91
2022-11-07T05:58:35.981Z,99398.91
2022-11-07T06:01:04.711Z,99407.34
2022-11-07T06:03:36.154Z,99407.91
2022-11-07T06:06:04.906Z,99403.44
2022-11-07T06:08:33.793Z,99402.06
2022-11-07T06:11:06.331Z,99402.47
2022-11-07T06:13:35.065Z,99406.94
2022-11-07T06:16:03.665Z,99406.88
2022-11-07T06:18:32.009Z,99415.53
2022-11-07T06:21:04.471Z,99419.00
2022-11-07T06:23:33.235Z,99422.84
2022-11-07T06:26:02.409Z,99422.31
2022-11-07T06:28:31.059Z,99426.13
2022-11-07T06:31:01.203Z,99426.97
2022-11-07T06:33:30.673Z,99429.94
2022-11-07T06:36:09.495Z,99424.47
2022-11-07T06:38:38.532Z,99420.00
2022-11-07T06:41:07.786Z,99410.88
2022-11-07T06:43:36.608Z,99410.66
2022-11-07T06:46:05.845Z,99414.31
2022-11-07T06:48:34.212Z,99409.44
2022-11-07T06:51:04.281Z,99410.03
2022-11-07T06:53:35.152Z,99401.75
2022-11-07T06:56:04.242Z,99401.53
2022-11-07T06:58:33.735Z,99401.88
2022-11-07T07:01:03.109Z,99391.28
2022-11-07T07:03:31.855Z,99391.69
2022-11-07T07:06:02.584Z,99387.28
2022-11-07T07:08:33.539Z,99395.47
2022-11-07T07:11:06.587Z,99385.66
2022-11-07T07:13:35.982Z,99394.13
2022-11-07T07:16:06.060Z,99384.06
2022-11-07T07:18:37.523Z,99390.63
2022-11-07T07:21:07.269Z,99392.41
2022-11-07T07:23:45.081Z,99391.41
2022-11-07T07:26:17.245Z,99402.03
2022-11-07T07:31:46.135Z,99392.00
2022-11-07T07:34:18.259Z,99396.81
2022-11-07T07:36:49.082Z,99397.75
2022-11-07T07:39:20.038Z,99401.38
2022-11-07T07:41:51.194Z,99401.47
2022-11-07T07:44:22.432Z,99395.41
2022-11-07T07:46:55.267Z,99401.97
2022-11-07T07:49:28.933Z,99400.06
2022-11-07T07:51:59.706Z,99401.44
2022-11-07T07:54:28.644Z,99394.41
2022-11-07T07:56:59.031Z,99398.03
2022-11-07T07:59:28.311Z,99397.44
2022-11-07T08:01:57.867Z,99401.84
2022-11-07T08:04:27.248Z,99406.75
2022-11-07T08:06:58.787Z,99389.03
2022-11-07T08:09:27.633Z,99396.66
2022-11-07T08:11:56.972Z,99386.00
2022-11-07T08:14:27.369Z,99392.72
2022-11-07T08:16:55.705Z,99381.31
2022-11-07T08:19:25.237Z,99374.25
2022-11-07T08:21:55.666Z,99383.09
2022-11-07T08:24:26.817Z,99376.06
2022-11-07T08:26:55.583Z,99379.25
2022-11-07T08:29:24.289Z,99383.03
2022-11-07T08:31:54.840Z,99383.63
2022-11-07T08:34:25.145Z,99393.56
2022-11-07T08:36:54.165Z,99384.06
2022-11-07T08:39:23.096Z,99393.19
2022-11-07T08:41:52.039Z,99390.63
2022-11-07T08:44:21.562Z,99398.59
2022-11-07T08:46:51.329Z,99390.47
2022-11-07T08:49:22.680Z,99385.06
2022-11-07T08:51:51.989Z,99375.97
2022-11-07T08:54:24.092Z,99384.81
2022-11-07T08:56:58.003Z,99379.34
2022-11-07T08:59:29.424Z,99380.03
2022-11-07T09:04:49.246Z,99380.66
2022-11-07T09:07:20.752Z,99374.81
2022-11-07T09:09:51.613Z,99383.63
2022-11-07T09:12:22.145Z,99377.16
2022-11-07T09:14:50.868Z,99376.22
2022-11-07T09:17:21.636Z,99376.78
2022-11-07T09:19:52.578Z,99377.06
2022-11-07T09:22:24.315Z,99375.16
2022-11-07T09:24:53.283Z,99380.06
2022-11-07T09:27:23.534Z,99376.06
2022-11-07T09:32:45.852Z,99376.31
2022-11-07T09:35:21.270Z,99370.66
2022-11-07T09:37:54.722Z,99375.78
2022-11-07T09:40:26.931Z,99377.97
2022-11-07T09:43:02.891Z,99384.38
2022-11-07T09:48:24.568Z,99367.91
2022-11-07T09:50:55.147Z,99366.81
2022-11-07T09:53:29.219Z,99358.41
2022-11-07T09:56:00.084Z,99366.88
2022-11-07T09:58:32.320Z,99367.03
2022-11-07T10:01:07.096Z,99352.63
2022-11-07T10:03:37.110Z,99368.53
2022-11-07T10:06:16.768Z,99363.66
2022-11-07T10:08:52.739Z,99359.75
2022-11-07T10:11:33.335Z,99361.19
2022-11-07T10:14:07.370Z,99352.06
2022-11-07T10:16:53.649Z,99347.16
2022-11-07T10:19:31.349Z,99355.06
2022-11-07T10:22:14.230Z,99354.63
2022-11-07T10:24:51.350Z,99355.91
2022-11-07T10:27:23.063Z,99350.88
2022-11-07T10:30:03.075Z,99362.94
2022-11-07T10:32:37.157Z,99358.47
2022-11-07T10:35:17.049Z,99344.78
2022-11-07T10:37:54.795Z,99338.50
2022-11-07T10:40:26.682Z,99344.72
2022-11-07T10:42:56.188Z,99342.91
2022-11-07T10:45:26.280Z,99340.75
2022-11-07T10:47:59.487Z,99346.66
2022-11-07T10:50:30.252Z,99336.91
2022-11-07T10:53:03.406Z,99348.69
2022-11-07T10:55:34.531Z,99338.41
2022-11-07T11:04:01.832Z,99346.22
2022-11-07T11:06:38.711Z,99343.88
2022-11-07T11:09:20.070Z,99347.31
2022-11-07T11:11:55.250Z,99350.09
2022-11-07T11:14:24.192Z,99345.72
2022-11-07T11:16:55.819Z,99343.78
2022-11-07T11:19:36.784Z,99340.06
2022-11-07T11:22:13.819Z,99339.03
2022-11-07T11:24:44.807Z,99338.69
2022-11-07T11:27:15.758Z,99339.84
2022-11-07T11:29:47.467Z,99336.47
2022-11-07T11:32:26.104Z,99333.59
2022-11-07T11:35:01.907Z,99333.97
2022-11-07T11:37:31.084Z,99334.56
2022-11-07T11:40:15.131Z,99334.44
2022-11-07T11:46:13.132Z,99324.88
2022-11-07T11:54:58.344Z,99323.59
2022-11-07T11:57:34.647Z,99324.75
2022-11-07T12:00:06.487Z,99319.72
2022-11-07T12:02:42.866Z,99319.03
2022-11-07T12:05:20.712Z,99317.22
2022-11-07T12:07:56.199Z,99323.16
2022-11-07T12:10:28.935Z,99318.47
2022-11-07T12:13:04.684Z,99317.81
2022-11-07T12:15:41.782Z,99321.66
2022-11-07T12:18:16.234Z,99318.38
2022-11-07T12:20:51.131Z,99318.38
2022-11-07T12:23:28.060Z,99316.19
2022-11-07T12:26:00.445Z,99311.97
2022-11-07T12:28:36.805Z,99301.09
2022-11-07T12:31:12.507Z,99302.78
2022-11-07T12:33:48.457Z,99305.44
2022-11-07T12:36:25.358Z,99302.06
2022-11-07T12:39:07.449Z,99304.84
2022-11-07T12:41:41.252Z,99296.69
2022-11-07T12:44:21.222Z,99299.59
2022-11-07T12:49:50.286Z,99306.47
2022-11-07T12:52:29.671Z,99295.38
2022-11-07T12:55:01.215Z,99299.84
2022-11-07T12:57:33.735Z,99299.47
2022-11-07T13:02:46.528Z,99309.25
2022-11-07T13:05:20.333Z,99305.28
2022-11-07T13:07:53.274Z,99308.81
2022-11-07T13:10:26.004Z,99299.09
2022-11-07T13:13:01.737Z,99300.94
2022-11-07T13:15:53.721Z,99296.47
2022-11-07T13:18:26.651Z,99300.50
2022-11-07T13:21:03.710Z,99297.72
2022-11-07T13:23:32.542Z,99297.28
2022-11-07T13:26:06.953Z,99300.69
2022-11-07T13:28:46.487Z,99297.78
2022-11-07T13:31:35.803Z,99302.22
2022-11-07T13:34:13.281Z,99296.34
2022-11-07T13:36:42.102Z,99292.31
2022-11-07T13:39:13.530Z,99298.97
2022-11-07T13:41:44.696Z,99295.41
2022-11-07T13:44:27.399Z,99299.25
2022-11-07T13:46:57.061Z,99289.75
2022-11-07T13:49:29.268Z,99294.66
2022-11-07T13:52:01.090Z,99302.53
2022-11-07T13:54:33.884Z,99308.56
2022-11-07T13:57:05.330Z,99306.31
2022-11-07T13:59:41.291Z,99302.28
2022-11-07T14:02:20.321Z,99301.94
2022-11-07T14:05:15.310Z,99293.28
2022-11-07T14:07:45.978Z,99296.25
2022-11-07T14:10:20.595Z,99298.72
2022-11-07T14:12:49.992Z,99298.88
2022-11-07T14:15:19.337Z,99293.56
2022-11-07T14:17:48.162Z,99297.94
2022-11-07T14:20:20.699Z,99294.22
2022-11-07T14:22:50.302Z,99291.50
2022-11-07T14:25:22.609Z,99286.78
2022-11-07T14:27:51.217Z,99291.88
2022-11-07T14:30:21.401Z,99284.38
2022-11-07T14:32:51.573Z,99294.28
2022-11-07T14:35:29.563Z,99289.25
2022-11-07T14:37:58.812Z,99299.53
2022-11-07T14:40:29.561Z,99295.44
2022-11-07T14:42:58.196Z,99286.31
2022-11-07T14:46:05.570Z,99289.19
2022-11-07T14:48:17.941Z,99278.69
2022-11-07T14:53:55.127Z,99285.53
2022-11-07T14:56:26.875Z,99289.97
2022-11-07T14:58:58.204Z,99281.44
2022-11-07T15:01:29.267Z,99284.22
2022-11-07T15:04:00.236Z,99270.88
2022-11-07T15:06:34.128Z,99274.91
2022-11-07T15:09:07.164Z,99277.44
2022-11-07T15:11:40.401Z,99274.44
2022-11-07T15:17:23.133Z,99281.94
2022-11-07T15:20:02.707Z,99273.22
2022-11-07T15:22:38.809Z,99271.63
2022-11-07T15:25:25.893Z,99271.81
2022-11-07T15:27:58.119Z,99263.56
2022-11-07T15:30:28.927Z,99268.91
2022-11-07T15:32:58.772Z,99270.06
2022-11-07T15:35:43.415Z,99265.53
2022-11-07T15:38:18.605Z,99267.03
2022-11-07T15:40:47.542Z,99270.16
2022-11-07T15:43:20.207Z,99266.56
2022-11-07T15:45:49.845Z,99267.44
2022-11-07T15:48:19.592Z,99273.56
2022-11-07T15:50:49.305Z,99264.75
2022-11-07T15:53:20.559Z,99263.94
2022-11-07T15:55:50.320Z,99266.19
2022-11-07T15:58:22.893Z,99266.78
2022-11-07T16:00:53.087Z,99265.13
2022-11-07T16:03:23.210Z,99264.69
2022-11-07T16:05:53.517Z,99257.03
2022-11-07T16:08:29.974Z,99267.31
2022-11-07T16:11:02.419Z,99260.72
2022-11-07T16:13:34.085Z,99261.28
2022-11-07T16:16:05.959Z,99254.09
2022-11-07T16:18:37.355Z,99246.66
2022-11-07T16:21:06.099Z,99246.88
2022-11-07T16:23:35.266Z,99238.78
2022-11-07T16:26:04.192Z,99238.78
2022-11-07T16:28:36.592Z,99227.13
2022-11-07T16:31:05.666Z,99233.59
2022-11-07T16:33:36.963Z,99232.81
2022-11-07T16:36:13.814Z,99227.78
2022-11-07T16:38:42.744Z,99230.56
2022-11-07T16:41:14.042Z,99229.88
2022-11-07T16:43:44.612Z,99225.44
2022-11-07T16:46:16.824Z,99228.72
2022-11-07T16:48:45.904Z,99220.28
2022-11-07T16:51:16.987Z,99221.16
2022-11-07T16:53:46.282Z,99224.13
2022-11-07T16:56:19.999Z,99222.91
2022-11-07T16:58:50.075Z,99228.16
2022-11-07T17:01:19.211Z,99227.69
2022-11-07T17:03:47.826Z,99220.84
2022-11-07T17:06:20.852Z,99220.84
2022-11-07T17:08:49.555Z,99220.75
2022-11-07T17:11:19.010Z,99220.56
2022-11-07T17:13:49.253Z,99216.91
2022-11-07T17:16:21.129Z,99215.22
2022-11-07T17:18:50.156Z,99209.63
2022-11-07T17:21:22.856Z,99216.09
2022-11-07T17:23:52.061Z,99207.63
2022-11-07T17:26:22.211Z,99215.59
2022-11-07T17:28:51.530Z,99221.41
2022-11-07T17:31:22.481Z,99208.88
2022-11-07T17:33:54.386Z,99217.56
2022-11-07T17:36:32.067Z,99213.69
2022-11-07T17:39:05.812Z,99218.59
2022-11-07T17:41:35.345Z,99208.97
2022-11-07T17:44:04.583Z,99203.63
2022-11-07T17:46:38.350Z,99213.84
2022-11-07T17:49:09.360Z,99206.13
2022-11-07T17:51:38.143Z,99212.25
2022-11-07T17:54:07.249Z,99210.41
2022-11-07T17:56:35.548Z,99156.28
2022-11-07T17:59:05.621Z,99205.16
2022-11-07T18:01:37.941Z,99209.63
2022-11-07T18:04:07.003Z,99203.44
2022-11-07T18:06:36.833Z,99196.34
2022-11-07T18:09:07.413Z,99194.19
2022-11-07T18:11:37.012Z,99194.66
2022-11-07T18:14:05.074Z,99193.88
2022-11-07T18:16:37.457Z,99194.47
2022-11-07T18:19:07.127Z,99193.28
2022-11-07T18:21:36.779Z,99183.97
2022-11-07T18:24:06.002Z,99186.00
2022-11-07T18:26:35.502Z,99184.03
2022-11-07T18:29:05.619Z,99196.06
2022-11-07T18:31:38.965Z,99186.88
2022-11-07T18:34:10.065Z,99186.88
2022-11-07T18:36:47.346Z,99178.44
2022-11-07T18:39:17.762Z,99184.84
2022-11-07T18:41:50.133Z,99173.47
2022-11-07T18:44:21.653Z,99183.09
2022-11-07T18:46:52.060Z,99171.78
2022-11-07T18:49:29.488Z,99164.28
2022-11-07T18:52:05.590Z,99164.66
2022-11-07T18:54:34.246Z,99170.25
2022-11-07T18:57:03.244Z,99170.09
2022-11-07T18:59:31.984Z,99168.66
2022-11-07T19:02:03.223Z,99165.22
2022-11-07T19:16:27.317Z,99156.28
2022-11-07T19:18:58.760Z,99167.94
2022-11-07T19:21:27.616Z,99161.88
2022-11-07T19:23:56.211Z,99166.03
2022-11-07T19:26:25.395Z,99158.50
2022-11-07T19:31:36.992Z,99158.38
2022-11-07T19:34:08.376Z,99153.03
2022-11-07T19:36:37.327Z,99155.66
2022-11-07T19:39:06.344Z,99154.06
2022-11-07T19:41:35.161Z,99152.91
2022-11-07T19:44:05.015Z,99156.25
2022-11-07T19:46:34.162Z,99158.66
2022-11-07T19:49:04.493Z,99156.38
2022-11-07T19:51:36.468Z,99160.00
2022-11-07T19:54:15.778Z,99152.03
2022-11-07T19:56:45.334Z,99140.41
2022-11-07T19:59:25.125Z,99140.97
2022-11-07T20:02:30.982Z,99140.84
2022-11-07T20:04:53.983Z,99136.53
2022-11-07T20:07:24.508Z,99137.56
2022-11-07T20:09:53.396Z,99131.88
2022-11-07T20:12:22.371Z,99126.91
2022-11-07T20:14:53.595Z,99125.88
2022-11-07T20:17:22.329Z,99125.44
2022-11-07T20:19:51.216Z,99129.09
2022-11-07T20:22:19.623Z,99124.19
2022-11-07T20:24:49.348Z,99113.09
2022-11-07T20:27:17.947Z,99107.06
2022-11-07T20:29:47.176Z,99106.38
2022-11-07T20:32:16.156Z,99105.91
2022-11-07T20:34:49.930Z,99108.66
2022-11-07T20:37:22.834Z,99114.28
2022-11-07T20:39:52.764Z,99110.28
2022-11-07T20:42:21.745Z,99101.38
2022-11-07T20:44:52.184Z,99114.41
2022-11-07T20:47:24.086Z,99117.38
2022-11-07T20:49:53.035Z,99101.97
2022-11-07T20:52:21.291Z,99106.53
2022-11-07T20:54:50.255Z,99108.91
2022-11-07T20:57:20.525Z,99101.63
2022-11-07T20:59:51.022Z,99092.38
2022-11-07T21:02:19.773Z,99087.91
2022-11-07T21:05:11.225Z,99099.22
2022-11-07T21:07:37.077Z,99091.69
2022-11-07T21:10:06.060Z,99084.16
2022-11-07T21:12:37.414Z,99074.00
2022-11-07T21:15:06.765Z,99080.06
2022-11-07T21:17:35.603Z,99074.13
2022-11-07T21:20:04.382Z,99069.91
2022-11-07T21:22:34.006Z,99068.19
2022-11-07T21:25:03.591Z,99060.88
2022-11-07T21:27:37.042Z,99054.16
2022-11-07T21:30:10.302Z,99058.34
2022-11-07T21:32:41.076Z,99063.50
2022-11-07T21:35:12.455Z,99058.38
2022-11-07T21:37:42.265Z,99060.56
2022-11-07T21:40:13.678Z,99049.91
2022-11-07T21:42:42.908Z,99052.53
2022-11-07T21:45:13.773Z,99042.72
2022-11-07T21:47:45.811Z,99052.53
2022-11-07T21:50:42.763Z,99040.13
2022-11-07T21:53:07.227Z,99051.66
2022-11-07T21:55:35.681Z,99053.13
2022-11-07T21:58:04.717Z,99050.94
2022-11-07T22:00:36.974Z,99059.75
2022-11-07T22:03:06.048Z,99055.28
2022-11-07T22:05:37.032Z,99064.53
2022-11-07T22:08:08.294Z,99059.19
2022-11-07T22:10:37.867Z,99055.97
2022-11-07T22:13:07.628Z,99051.53
2022-11-07T22:15:38.206Z,99050.72
2022-11-07T22:18:07.005Z,99042.84
2022-11-07T22:20:35.902Z,99047.31
2022-11-07T22:23:06.588Z,99050.84
2022-11-07T22:25:36.262Z,99040.22
2022-11-07T22:28:06.724Z,99050.97
2022-11-07T22:30:37.412Z,99045.59
2022-11-07T22:33:07.496Z,99038.75
2022-11-07T22:35:35.845Z,99044.44
2022-11-07T22:38:04.850Z,99032.69
2022-11-07T22:40:35.756Z,99028.59
2022-11-07T22:43:04.341Z,99027.75
2022-11-07T22:45:33.221Z,99017.25
2022-11-07T22:48:03.822Z,99016.47
2022-11-07T22:50:35.683Z,99021.72
2022-11-07T22:53:05.043Z,99010.78
2022-11-07T22:55:37.919Z,99007.44
2022-11-07T22:58:09.913Z,99006.06
2022-11-07T23:00:44.218Z,99011.22
2022-11-07T23:03:13.277Z,99016.91
2022-11-07T23:05:43.645Z,99014.06
2022-11-07T23:11:44.899Z,99004.38
2022-11-07T23:14:03.665Z,98998.66
2022-11-07T23:16:34.716Z,98987.69
2022-11-07T23:19:04.765Z,98993.06
2022-11-07T23:21:37.304Z,98987.13
2022-11-07T23:24:06.578Z,98982.31
2022-11-07T23:26:38.618Z,98987.13
2022-11-07T23:29:11.648Z,98989.19
2022-11-07T23:31:41.371Z,98979.13
2022-11-07T23:34:11.145Z,98984.94
2022-11-07T23:36:45.043Z,98988.25
2022-11-07T23:39:15.680Z,98982.91
2022-11-07T23:41:45.404Z,98990.78
2022-11-07T23:44:14.560Z,98979.47
2022-11-07T23:47:00.537Z,98985.84
2022-11-07T23:49:51.493Z,98973.28
2022-11-07T23:52:22.356Z,98975.91
2022-11-07T23:55:09.256Z,98965.78
2022-11-07T23:57:57.985Z,98953.09
